sensor_id;sensor_type;location;lat;lon;timestamp;temperature;humidity
11087;DHT22;5597;47.588;9.642;2024-01-25T00:00:55;9.40;99.90
11087;DHT22;5597;47.588;9.642;2024-01-25T00:03:20;9.30;99.90
11087;DHT22;5597;47.588;9.642;2024-01-25T00:05:47;9.30;99.90
11087;DHT22;5597;47.588;9.642;2024-01-25T00:08:12;9.30;99.90
11087;DHT22;5597;47.588;9.642;2024-01-25T00:10:38;9.30;99.90
11087;DHT22;5597;47.588;9.642;2024-01-25T00:13:04;9.30;99.90
11087;DHT22;5597;47.588;9.642;2024-01-25T00:15:29;9.30;99.90
11087;DHT22;5597;47.588;9.642;2024-01-25T00:17:55;9.30;99.90
11087;DHT22;5597;47.588;9.642;2024-01-25T00:20:22;9.30;99.90
11087;DHT22;5597;47.588;9.642;2024-01-25T00:22:47;9.30;99.90
11087;DHT22;5597;47.588;9.642;2024-01-25T00:25:13;9.30;99.90
11087;DHT22;5597;47.588;9.642;2024-01-25T00:27:38;9.30;99.90
11087;DHT22;5597;47.588;9.642;2024-01-25T00:30:04;9.20;99.90
11087;DHT22;5597;47.588;9.642;2024-01-25T00:32:30;9.20;99.90
11087;DHT22;5597;47.588;9.642;2024-01-25T00:34:56;9.20;99.90
11087;DHT22;5597;47.588;9.642;2024-01-25T00:37:22;9.20;99.90
11087;DHT22;5597;47.588;9.642;2024-01-25T00:39:48;9.20;99.90
11087;DHT22;5597;47.588;9.642;2024-01-25T00:42:15;9.10;99.90
11087;DHT22;5597;47.588;9.642;2024-01-25T00:44:41;9.10;99.90
11087;DHT22;5597;47.588;9.642;2024-01-25T00:47:07;9.10;99.90
11087;DHT22;5597;47.588;9.642;2024-01-25T00:49:33;9.10;99.90
11087;DHT22;5597;47.588;9.642;2024-01-25T00:51:59;9.10;99.90
11087;DHT22;5597;47.588;9.642;2024-01-25T00:54:25;9.00;99.90
11087;DHT22;5597;47.588;9.642;2024-01-25T00:56:51;9.00;99.90
11087;DHT22;5597;47.588;9.642;2024-01-25T00:59:18;9.00;99.90
11087;DHT22;5597;47.588;9.642;2024-01-25T01:01:46;9.00;99.90
11087;DHT22;5597;47.588;9.642;2024-01-25T01:04:12;9.00;99.90
11087;DHT22;5597;47.588;9.642;2024-01-25T01:06:38;9.00;99.90
11087;DHT22;5597;47.588;9.642;2024-01-25T01:09:04;9.00;99.90
11087;DHT22;5597;47.588;9.642;2024-01-25T01:11:30;9.00;99.90
11087;DHT22;5597;47.588;9.642;2024-01-25T01:13:55;9.00;99.90
11087;DHT22;5597;47.588;9.642;2024-01-25T01:16:21;9.00;99.90
11087;DHT22;5597;47.588;9.642;2024-01-25T01:18:47;9.00;99.90
11087;DHT22;5597;47.588;9.642;2024-01-25T01:21:12;9.00;99.90
11087;DHT22;5597;47.588;9.642;2024-01-25T01:23:38;9.00;99.90
11087;DHT22;5597;47.588;9.642;2024-01-25T01:26:04;9.00;99.90
11087;DHT22;5597;47.588;9.642;2024-01-25T01:28:30;9.00;99.90
11087;DHT22;5597;47.588;9.642;2024-01-25T01:30:55;9.00;99.90
11087;DHT22;5597;47.588;9.642;2024-01-25T01:33:21;9.00;99.90
11087;DHT22;5597;47.588;9.642;2024-01-25T01:35:46;9.00;99.90
11087;DHT22;5597;47.588;9.642;2024-01-25T01:38:12;9.00;99.90
11087;DHT22;5597;47.588;9.642;2024-01-25T01:40:37;9.00;99.90
11087;DHT22;5597;47.588;9.642;2024-01-25T01:43:03;9.00;99.90
11087;DHT22;5597;47.588;9.642;2024-01-25T01:45:29;9.00;99.90
11087;DHT22;5597;47.588;9.642;2024-01-25T01:47:56;9.00;99.90
11087;DHT22;5597;47.588;9.642;2024-01-25T01:50:22;9.00;99.90
11087;DHT22;5597;47.588;9.642;2024-01-25T01:52:49;8.90;99.90
11087;DHT22;5597;47.588;9.642;2024-01-25T01:55:16;8.90;99.90
11087;DHT22;5597;47.588;9.642;2024-01-25T01:57:42;9.00;99.90
11087;DHT22;5597;47.588;9.642;2024-01-25T02:00:09;8.90;99.90
11087;DHT22;5597;47.588;9.642;2024-01-25T02:02:35;8.90;99.90
11087;DHT22;5597;47.588;9.642;2024-01-25T02:05:01;8.90;99.90
11087;DHT22;5597;47.588;9.642;2024-01-25T02:07:28;8.90;99.90
11087;DHT22;5597;47.588;9.642;2024-01-25T02:09:53;8.90;99.90
11087;DHT22;5597;47.588;9.642;2024-01-25T02:12:19;8.90;99.90
11087;DHT22;5597;47.588;9.642;2024-01-25T02:14:45;8.90;99.90
11087;DHT22;5597;47.588;9.642;2024-01-25T02:17:11;8.90;99.90
11087;DHT22;5597;47.588;9.642;2024-01-25T02:19:36;8.80;99.90
11087;DHT22;5597;47.588;9.642;2024-01-25T02:22:05;8.90;99.90
11087;DHT22;5597;47.588;9.642;2024-01-25T02:24:31;8.80;99.90
11087;DHT22;5597;47.588;9.642;2024-01-25T02:26:56;8.80;99.90
11087;DHT22;5597;47.588;9.642;2024-01-25T02:29:22;8.80;99.90
11087;DHT22;5597;47.588;9.642;2024-01-25T02:31:47;8.80;99.90
11087;DHT22;5597;47.588;9.642;2024-01-25T02:34:13;8.80;99.90
11087;DHT22;5597;47.588;9.642;2024-01-25T02:36:39;8.70;99.90
11087;DHT22;5597;47.588;9.642;2024-01-25T02:39:04;8.70;99.90
11087;DHT22;5597;47.588;9.642;2024-01-25T02:41:31;8.70;99.90
11087;DHT22;5597;47.588;9.642;2024-01-25T02:43:57;8.70;99.90
11087;DHT22;5597;47.588;9.642;2024-01-25T02:46:23;8.70;99.90
11087;DHT22;5597;47.588;9.642;2024-01-25T02:48:48;8.70;99.90
11087;DHT22;5597;47.588;9.642;2024-01-25T02:51:14;8.70;99.90
11087;DHT22;5597;47.588;9.642;2024-01-25T02:53:40;8.70;99.90
11087;DHT22;5597;47.588;9.642;2024-01-25T02:56:06;8.70;99.90
11087;DHT22;5597;47.588;9.642;2024-01-25T02:58:32;8.70;99.90
11087;DHT22;5597;47.588;9.642;2024-01-25T03:00:58;8.70;99.90
11087;DHT22;5597;47.588;9.642;2024-01-25T03:03:23;8.70;99.90
11087;DHT22;5597;47.588;9.642;2024-01-25T03:05:50;8.70;99.90
11087;DHT22;5597;47.588;9.642;2024-01-25T03:08:16;8.70;99.90
11087;DHT22;5597;47.588;9.642;2024-01-25T03:10:42;8.70;99.90
11087;DHT22;5597;47.588;9.642;2024-01-25T03:13:07;8.70;99.90
11087;DHT22;5597;47.588;9.642;2024-01-25T03:15:33;8.70;99.90
11087;DHT22;5597;47.588;9.642;2024-01-25T03:17:58;8.70;99.90
11087;DHT22;5597;47.588;9.642;2024-01-25T03:20:24;8.70;99.90
11087;DHT22;5597;47.588;9.642;2024-01-25T03:22:50;8.70;99.90
11087;DHT22;5597;47.588;9.642;2024-01-25T03:25:15;8.70;99.90
11087;DHT22;5597;47.588;9.642;2024-01-25T03:27:41;8.70;99.90
11087;DHT22;5597;47.588;9.642;2024-01-25T03:30:07;8.70;99.90
11087;DHT22;5597;47.588;9.642;2024-01-25T03:32:35;8.70;99.90
11087;DHT22;5597;47.588;9.642;2024-01-25T03:35:01;8.70;99.90
11087;DHT22;5597;47.588;9.642;2024-01-25T03:37:27;8.70;99.90
11087;DHT22;5597;47.588;9.642;2024-01-25T03:39:53;8.70;99.90
11087;DHT22;5597;47.588;9.642;2024-01-25T03:42:18;8.70;99.90
11087;DHT22;5597;47.588;9.642;2024-01-25T03:44:44;8.70;99.90
11087;DHT22;5597;47.588;9.642;2024-01-25T03:47:11;8.70;99.90
11087;DHT22;5597;47.588;9.642;2024-01-25T03:49:37;8.70;99.90
11087;DHT22;5597;47.588;9.642;2024-01-25T03:52:06;8.80;99.90
11087;DHT22;5597;47.588;9.642;2024-01-25T03:54:32;8.70;99.90
11087;DHT22;5597;47.588;9.642;2024-01-25T03:56:58;8.70;99.90
11087;DHT22;5597;47.588;9.642;2024-01-25T03:59:23;8.80;99.90
11087;DHT22;5597;47.588;9.642;2024-01-25T04:01:49;8.80;99.90
11087;DHT22;5597;47.588;9.642;2024-01-25T04:04:15;8.80;99.90
11087;DHT22;5597;47.588;9.642;2024-01-25T04:06:44;8.80;99.90
11087;DHT22;5597;47.588;9.642;2024-01-25T04:09:13;8.80;99.90
11087;DHT22;5597;47.588;9.642;2024-01-25T04:11:40;8.80;99.90
11087;DHT22;5597;47.588;9.642;2024-01-25T04:14:06;8.80;99.90
11087;DHT22;5597;47.588;9.642;2024-01-25T04:16:32;8.80;99.90
11087;DHT22;5597;47.588;9.642;2024-01-25T04:18:58;8.80;99.90
11087;DHT22;5597;47.588;9.642;2024-01-25T04:21:24;8.80;99.90
11087;DHT22;5597;47.588;9.642;2024-01-25T04:23:49;8.70;99.90
11087;DHT22;5597;47.588;9.642;2024-01-25T04:26:15;8.70;99.90
11087;DHT22;5597;47.588;9.642;2024-01-25T04:28:42;8.70;99.90
11087;DHT22;5597;47.588;9.642;2024-01-25T04:31:08;8.70;99.90
11087;DHT22;5597;47.588;9.642;2024-01-25T04:33:33;8.70;99.90
11087;DHT22;5597;47.588;9.642;2024-01-25T04:35:59;8.70;99.90
11087;DHT22;5597;47.588;9.642;2024-01-25T04:38:25;8.70;99.90
11087;DHT22;5597;47.588;9.642;2024-01-25T04:40:50;8.70;99.90
11087;DHT22;5597;47.588;9.642;2024-01-25T04:43:16;8.70;99.90
11087;DHT22;5597;47.588;9.642;2024-01-25T04:45:41;8.70;99.90
11087;DHT22;5597;47.588;9.642;2024-01-25T04:48:07;8.70;99.90
11087;DHT22;5597;47.588;9.642;2024-01-25T04:50:33;8.70;99.90
11087;DHT22;5597;47.588;9.642;2024-01-25T04:53:01;8.70;99.90
11087;DHT22;5597;47.588;9.642;2024-01-25T04:55:27;8.70;99.90
11087;DHT22;5597;47.588;9.642;2024-01-25T04:57:53;8.70;99.90
11087;DHT22;5597;47.588;9.642;2024-01-25T05:00:21;8.70;99.90
11087;DHT22;5597;47.588;9.642;2024-01-25T05:02:47;8.70;99.90
11087;DHT22;5597;47.588;9.642;2024-01-25T05:05:13;8.70;99.90
11087;DHT22;5597;47.588;9.642;2024-01-25T05:07:38;8.70;99.90
11087;DHT22;5597;47.588;9.642;2024-01-25T05:10:04;8.70;99.90
11087;DHT22;5597;47.588;9.642;2024-01-25T05:12:30;8.70;99.90
11087;DHT22;5597;47.588;9.642;2024-01-25T05:14:55;8.60;99.90
11087;DHT22;5597;47.588;9.642;2024-01-25T05:17:21;8.60;99.90
11087;DHT22;5597;47.588;9.642;2024-01-25T05:19:46;8.60;99.90
11087;DHT22;5597;47.588;9.642;2024-01-25T05:22:12;8.60;99.90
11087;DHT22;5597;47.588;9.642;2024-01-25T05:24:38;8.50;99.90
11087;DHT22;5597;47.588;9.642;2024-01-25T05:27:03;8.50;99.90
11087;DHT22;5597;47.588;9.642;2024-01-25T05:29:29;8.50;99.90
11087;DHT22;5597;47.588;9.642;2024-01-25T05:31:54;8.40;99.90
11087;DHT22;5597;47.588;9.642;2024-01-25T05:34:21;8.40;99.90
11087;DHT22;5597;47.588;9.642;2024-01-25T05:36:46;8.40;99.90
11087;DHT22;5597;47.588;9.642;2024-01-25T05:39:13;8.40;99.90
11087;DHT22;5597;47.588;9.642;2024-01-25T05:41:38;8.40;99.90
11087;DHT22;5597;47.588;9.642;2024-01-25T05:44:04;8.40;99.90
11087;DHT22;5597;47.588;9.642;2024-01-25T05:46:30;8.40;99.90
11087;DHT22;5597;47.588;9.642;2024-01-25T05:48:55;8.40;99.90
11087;DHT22;5597;47.588;9.642;2024-01-25T05:51:21;8.40;99.90
11087;DHT22;5597;47.588;9.642;2024-01-25T05:53:47;8.40;99.90
11087;DHT22;5597;47.588;9.642;2024-01-25T05:56:12;8.40;99.90
11087;DHT22;5597;47.588;9.642;2024-01-25T05:58:38;8.40;99.90
11087;DHT22;5597;47.588;9.642;2024-01-25T06:01:03;8.40;99.90
11087;DHT22;5597;47.588;9.642;2024-01-25T06:03:29;8.40;99.90
11087;DHT22;5597;47.588;9.642;2024-01-25T06:05:55;8.40;99.90
11087;DHT22;5597;47.588;9.642;2024-01-25T06:08:21;8.40;99.90
11087;DHT22;5597;47.588;9.642;2024-01-25T06:10:47;8.40;99.90
11087;DHT22;5597;47.588;9.642;2024-01-25T06:13:13;8.40;99.90
11087;DHT22;5597;47.588;9.642;2024-01-25T06:15:38;8.40;99.90
11087;DHT22;5597;47.588;9.642;2024-01-25T06:18:04;8.40;99.90
11087;DHT22;5597;47.588;9.642;2024-01-25T06:20:30;8.40;99.90
11087;DHT22;5597;47.588;9.642;2024-01-25T06:22:55;8.40;99.90
11087;DHT22;5597;47.588;9.642;2024-01-25T06:25:21;8.40;99.90
11087;DHT22;5597;47.588;9.642;2024-01-25T06:27:47;8.40;99.90
11087;DHT22;5597;47.588;9.642;2024-01-25T06:30:14;8.40;99.90
11087;DHT22;5597;47.588;9.642;2024-01-25T06:32:39;8.40;99.90
11087;DHT22;5597;47.588;9.642;2024-01-25T06:35:05;8.40;99.90
11087;DHT22;5597;47.588;9.642;2024-01-25T06:37:31;8.40;99.90
11087;DHT22;5597;47.588;9.642;2024-01-25T06:39:57;8.40;99.90
11087;DHT22;5597;47.588;9.642;2024-01-25T06:42:22;8.30;99.90
11087;DHT22;5597;47.588;9.642;2024-01-25T06:44:48;8.30;99.90
11087;DHT22;5597;47.588;9.642;2024-01-25T06:47:13;8.30;99.90
11087;DHT22;5597;47.588;9.642;2024-01-25T06:49:39;8.30;99.90
11087;DHT22;5597;47.588;9.642;2024-01-25T06:52:05;8.30;99.90
11087;DHT22;5597;47.588;9.642;2024-01-25T06:54:31;8.30;99.90
11087;DHT22;5597;47.588;9.642;2024-01-25T06:56:57;8.30;99.90
11087;DHT22;5597;47.588;9.642;2024-01-25T06:59:22;8.30;99.90
11087;DHT22;5597;47.588;9.642;2024-01-25T07:01:49;8.30;99.90
11087;DHT22;5597;47.588;9.642;2024-01-25T07:04:14;8.30;99.90
11087;DHT22;5597;47.588;9.642;2024-01-25T07:06:40;8.30;99.90
11087;DHT22;5597;47.588;9.642;2024-01-25T07:09:06;8.30;99.90
11087;DHT22;5597;47.588;9.642;2024-01-25T07:11:32;8.30;99.90
11087;DHT22;5597;47.588;9.642;2024-01-25T07:13:57;8.30;99.90
11087;DHT22;5597;47.588;9.642;2024-01-25T07:16:23;8.30;99.90
11087;DHT22;5597;47.588;9.642;2024-01-25T07:18:49;8.30;99.90
11087;DHT22;5597;47.588;9.642;2024-01-25T07:21:15;8.30;99.90
11087;DHT22;5597;47.588;9.642;2024-01-25T07:23:41;8.30;99.90
11087;DHT22;5597;47.588;9.642;2024-01-25T07:26:06;8.20;99.90
11087;DHT22;5597;47.588;9.642;2024-01-25T07:28:32;8.20;99.90
11087;DHT22;5597;47.588;9.642;2024-01-25T07:30:57;8.20;99.90
11087;DHT22;5597;47.588;9.642;2024-01-25T07:33:23;8.20;99.90
11087;DHT22;5597;47.588;9.642;2024-01-25T07:35:48;8.20;99.90
11087;DHT22;5597;47.588;9.642;2024-01-25T07:38:15;8.20;99.90
11087;DHT22;5597;47.588;9.642;2024-01-25T07:40:41;8.20;99.90
11087;DHT22;5597;47.588;9.642;2024-01-25T07:43:07;8.20;99.90
11087;DHT22;5597;47.588;9.642;2024-01-25T07:45:32;8.20;99.90
11087;DHT22;5597;47.588;9.642;2024-01-25T07:47:58;8.20;99.90
11087;DHT22;5597;47.588;9.642;2024-01-25T07:50:24;8.20;99.90
11087;DHT22;5597;47.588;9.642;2024-01-25T07:52:49;8.20;99.90
11087;DHT22;5597;47.588;9.642;2024-01-25T07:55:16;8.20;99.90
11087;DHT22;5597;47.588;9.642;2024-01-25T07:57:41;8.20;99.90
11087;DHT22;5597;47.588;9.642;2024-01-25T08:00:07;8.20;99.90
11087;DHT22;5597;47.588;9.642;2024-01-25T08:02:35;8.20;99.90
11087;DHT22;5597;47.588;9.642;2024-01-25T08:05:00;8.20;99.90
11087;DHT22;5597;47.588;9.642;2024-01-25T08:07:26;8.20;99.90
11087;DHT22;5597;47.588;9.642;2024-01-25T08:09:51;8.20;99.90
11087;DHT22;5597;47.588;9.642;2024-01-25T08:12:18;8.20;99.90
11087;DHT22;5597;47.588;9.642;2024-01-25T08:14:44;8.20;99.90
11087;DHT22;5597;47.588;9.642;2024-01-25T08:17:10;8.20;99.90
11087;DHT22;5597;47.588;9.642;2024-01-25T08:19:35;8.20;99.90
11087;DHT22;5597;47.588;9.642;2024-01-25T08:22:01;8.20;99.90
11087;DHT22;5597;47.588;9.642;2024-01-25T08:24:27;8.20;99.90
11087;DHT22;5597;47.588;9.642;2024-01-25T08:26:53;8.20;99.90
11087;DHT22;5597;47.588;9.642;2024-01-25T08:29:18;8.20;99.90
11087;DHT22;5597;47.588;9.642;2024-01-25T08:31:44;8.20;99.90
11087;DHT22;5597;47.588;9.642;2024-01-25T08:34:09;8.30;99.90
11087;DHT22;5597;47.588;9.642;2024-01-25T08:36:35;8.30;99.90
11087;DHT22;5597;47.588;9.642;2024-01-25T08:39:01;8.30;99.90
11087;DHT22;5597;47.588;9.642;2024-01-25T08:41:27;8.30;99.90
11087;DHT22;5597;47.588;9.642;2024-01-25T08:43:52;8.40;99.90
11087;DHT22;5597;47.588;9.642;2024-01-25T08:46:18;8.40;99.90
11087;DHT22;5597;47.588;9.642;2024-01-25T08:48:43;8.40;99.90
11087;DHT22;5597;47.588;9.642;2024-01-25T08:51:09;8.40;99.90
11087;DHT22;5597;47.588;9.642;2024-01-25T08:53:34;8.40;99.90
11087;DHT22;5597;47.588;9.642;2024-01-25T08:56:00;8.40;99.90
11087;DHT22;5597;47.588;9.642;2024-01-25T08:58:26;8.50;99.90
11087;DHT22;5597;47.588;9.642;2024-01-25T09:00:51;8.50;99.90
11087;DHT22;5597;47.588;9.642;2024-01-25T09:03:17;8.60;99.90
11087;DHT22;5597;47.588;9.642;2024-01-25T09:05:42;8.60;99.90
11087;DHT22;5597;47.588;9.642;2024-01-25T09:08:12;8.60;99.90
11087;DHT22;5597;47.588;9.642;2024-01-25T09:10:38;8.70;99.90
11087;DHT22;5597;47.588;9.642;2024-01-25T09:13:04;8.70;99.90
11087;DHT22;5597;47.588;9.642;2024-01-25T09:15:30;8.80;99.90
11087;DHT22;5597;47.588;9.642;2024-01-25T09:17:55;8.70;99.90
11087;DHT22;5597;47.588;9.642;2024-01-25T09:20:21;8.80;99.90
11087;DHT22;5597;47.588;9.642;2024-01-25T09:22:46;8.80;99.90
11087;DHT22;5597;47.588;9.642;2024-01-25T09:25:12;8.80;99.90
11087;DHT22;5597;47.588;9.642;2024-01-25T09:27:37;8.90;99.90
11087;DHT22;5597;47.588;9.642;2024-01-25T09:30:05;8.90;99.90
11087;DHT22;5597;47.588;9.642;2024-01-25T09:32:31;8.90;99.90
11087;DHT22;5597;47.588;9.642;2024-01-25T09:34:56;8.90;99.90
11087;DHT22;5597;47.588;9.642;2024-01-25T09:37:22;8.90;99.90
11087;DHT22;5597;47.588;9.642;2024-01-25T09:39:52;8.90;99.90
11087;DHT22;5597;47.588;9.642;2024-01-25T09:42:18;8.90;99.90
11087;DHT22;5597;47.588;9.642;2024-01-25T09:44:45;8.90;99.90
11087;DHT22;5597;47.588;9.642;2024-01-25T09:47:11;9.00;99.90
11087;DHT22;5597;47.588;9.642;2024-01-25T09:49:37;9.00;99.90
11087;DHT22;5597;47.588;9.642;2024-01-25T09:52:03;9.00;99.90
11087;DHT22;5597;47.588;9.642;2024-01-25T09:54:35;9.10;99.90
11087;DHT22;5597;47.588;9.642;2024-01-25T09:57:08;9.10;99.90
11087;DHT22;5597;47.588;9.642;2024-01-25T09:59:37;9.10;99.90
11087;DHT22;5597;47.588;9.642;2024-01-25T10:02:03;9.10;99.90
11087;DHT22;5597;47.588;9.642;2024-01-25T10:04:29;9.20;99.90
11087;DHT22;5597;47.588;9.642;2024-01-25T10:06:58;9.20;99.90
11087;DHT22;5597;47.588;9.642;2024-01-25T10:09:24;9.20;99.90
11087;DHT22;5597;47.588;9.642;2024-01-25T10:11:49;9.10;99.90
11087;DHT22;5597;47.588;9.642;2024-01-25T10:14:15;9.10;99.90
11087;DHT22;5597;47.588;9.642;2024-01-25T10:16:40;9.00;99.90
11087;DHT22;5597;47.588;9.642;2024-01-25T10:19:06;9.00;99.90
11087;DHT22;5597;47.588;9.642;2024-01-25T10:21:35;9.10;99.90
11087;DHT22;5597;47.588;9.642;2024-01-25T10:24:01;9.20;99.90
11087;DHT22;5597;47.588;9.642;2024-01-25T10:26:27;9.20;99.90
11087;DHT22;5597;47.588;9.642;2024-01-25T10:28:55;9.30;99.90
11087;DHT22;5597;47.588;9.642;2024-01-25T10:31:24;9.30;99.90
11087;DHT22;5597;47.588;9.642;2024-01-25T10:33:53;9.40;99.90
11087;DHT22;5597;47.588;9.642;2024-01-25T10:36:21;9.40;99.90
11087;DHT22;5597;47.588;9.642;2024-01-25T10:38:48;9.50;99.90
11087;DHT22;5597;47.588;9.642;2024-01-25T10:41:14;9.50;99.90
11087;DHT22;5597;47.588;9.642;2024-01-25T10:43:43;9.40;99.90
11087;DHT22;5597;47.588;9.642;2024-01-25T10:46:09;9.40;99.90
11087;DHT22;5597;47.588;9.642;2024-01-25T10:48:35;9.40;99.90
11087;DHT22;5597;47.588;9.642;2024-01-25T10:51:01;9.40;99.90
11087;DHT22;5597;47.588;9.642;2024-01-25T10:53:33;9.40;99.90
11087;DHT22;5597;47.588;9.642;2024-01-25T10:56:00;9.40;99.90
11087;DHT22;5597;47.588;9.642;2024-01-25T10:58:33;9.50;99.90
11087;DHT22;5597;47.588;9.642;2024-01-25T11:01:01;9.60;99.90
11087;DHT22;5597;47.588;9.642;2024-01-25T11:03:29;9.60;99.90
11087;DHT22;5597;47.588;9.642;2024-01-25T11:06:09;9.70;99.90
11087;DHT22;5597;47.588;9.642;2024-01-25T11:08:35;9.60;99.90
11087;DHT22;5597;47.588;9.642;2024-01-25T11:11:15;9.70;99.90
11087;DHT22;5597;47.588;9.642;2024-01-25T11:13:42;9.70;99.90
11087;DHT22;5597;47.588;9.642;2024-01-25T11:16:19;9.70;99.90
11087;DHT22;5597;47.588;9.642;2024-01-25T11:18:54;9.70;99.90
11087;DHT22;5597;47.588;9.642;2024-01-25T11:21:45;9.70;99.90
11087;DHT22;5597;47.588;9.642;2024-01-25T11:24:15;9.80;99.90
11087;DHT22;5597;47.588;9.642;2024-01-25T11:26:45;9.80;99.90
11087;DHT22;5597;47.588;9.642;2024-01-25T11:29:16;9.80;99.90
11087;DHT22;5597;47.588;9.642;2024-01-25T11:31:43;9.80;99.90
11087;DHT22;5597;47.588;9.642;2024-01-25T11:34:11;9.80;99.90
11087;DHT22;5597;47.588;9.642;2024-01-25T11:36:37;9.80;99.90
11087;DHT22;5597;47.588;9.642;2024-01-25T11:39:03;9.90;99.90
11087;DHT22;5597;47.588;9.642;2024-01-25T11:41:31;10.00;99.90
11087;DHT22;5597;47.588;9.642;2024-01-25T11:43:56;10.00;99.90
11087;DHT22;5597;47.588;9.642;2024-01-25T11:46:22;10.10;99.90
11087;DHT22;5597;47.588;9.642;2024-01-25T11:48:49;10.10;99.90
11087;DHT22;5597;47.588;9.642;2024-01-25T11:51:14;10.10;99.90
11087;DHT22;5597;47.588;9.642;2024-01-25T11:53:40;10.10;99.90
11087;DHT22;5597;47.588;9.642;2024-01-25T11:56:09;10.10;99.90
11087;DHT22;5597;47.588;9.642;2024-01-25T11:58:37;10.20;99.90
11087;DHT22;5597;47.588;9.642;2024-01-25T12:01:04;10.20;99.90
11087;DHT22;5597;47.588;9.642;2024-01-25T12:03:34;10.20;99.90
11087;DHT22;5597;47.588;9.642;2024-01-25T12:06:00;10.20;99.90
11087;DHT22;5597;47.588;9.642;2024-01-25T12:08:26;10.20;99.90
11087;DHT22;5597;47.588;9.642;2024-01-25T12:11:08;10.10;99.90
11087;DHT22;5597;47.588;9.642;2024-01-25T12:13:42;10.20;99.90
11087;DHT22;5597;47.588;9.642;2024-01-25T12:16:11;10.20;99.90
11087;DHT22;5597;47.588;9.642;2024-01-25T12:18:39;10.20;99.90
11087;DHT22;5597;47.588;9.642;2024-01-25T12:21:05;10.20;99.90
11087;DHT22;5597;47.588;9.642;2024-01-25T12:23:35;10.20;99.90
11087;DHT22;5597;47.588;9.642;2024-01-25T12:26:08;10.20;99.90
11087;DHT22;5597;47.588;9.642;2024-01-25T12:28:35;10.20;99.90
11087;DHT22;5597;47.588;9.642;2024-01-25T12:31:02;10.20;99.90
11087;DHT22;5597;47.588;9.642;2024-01-25T12:33:29;10.30;99.90
11087;DHT22;5597;47.588;9.642;2024-01-25T12:35:54;10.30;99.90
11087;DHT22;5597;47.588;9.642;2024-01-25T12:38:21;10.30;99.90
11087;DHT22;5597;47.588;9.642;2024-01-25T12:40:48;10.30;99.90
11087;DHT22;5597;47.588;9.642;2024-01-25T12:43:15;10.30;99.90
11087;DHT22;5597;47.588;9.642;2024-01-25T12:45:42;10.20;99.90
11087;DHT22;5597;47.588;9.642;2024-01-25T12:48:08;10.20;99.90
11087;DHT22;5597;47.588;9.642;2024-01-25T12:50:34;10.20;99.90
11087;DHT22;5597;47.588;9.642;2024-01-25T12:53:01;10.20;99.90
11087;DHT22;5597;47.588;9.642;2024-01-25T12:55:28;10.20;99.90
11087;DHT22;5597;47.588;9.642;2024-01-25T12:57:54;10.20;99.90
11087;DHT22;5597;47.588;9.642;2024-01-25T13:00:20;10.20;99.90
11087;DHT22;5597;47.588;9.642;2024-01-25T13:02:46;10.20;99.90
11087;DHT22;5597;47.588;9.642;2024-01-25T13:05:12;10.20;99.90
11087;DHT22;5597;47.588;9.642;2024-01-25T13:07:37;10.20;99.90
11087;DHT22;5597;47.588;9.642;2024-01-25T13:10:03;10.20;99.90
11087;DHT22;5597;47.588;9.642;2024-01-25T13:12:29;10.20;99.90
11087;DHT22;5597;47.588;9.642;2024-01-25T13:14:54;10.20;99.90
11087;DHT22;5597;47.588;9.642;2024-01-25T13:17:20;10.20;99.90
11087;DHT22;5597;47.588;9.642;2024-01-25T13:19:46;10.20;99.90
11087;DHT22;5597;47.588;9.642;2024-01-25T13:22:13;10.20;99.90
11087;DHT22;5597;47.588;9.642;2024-01-25T13:24:38;10.20;99.90
11087;DHT22;5597;47.588;9.642;2024-01-25T13:27:05;10.30;99.90
11087;DHT22;5597;47.588;9.642;2024-01-25T13:29:30;10.20;99.90
11087;DHT22;5597;47.588;9.642;2024-01-25T13:31:56;10.20;99.90
11087;DHT22;5597;47.588;9.642;2024-01-25T13:34:21;10.20;99.90
11087;DHT22;5597;47.588;9.642;2024-01-25T13:36:47;10.20;99.90
11087;DHT22;5597;47.588;9.642;2024-01-25T13:39:12;10.20;99.90
11087;DHT22;5597;47.588;9.642;2024-01-25T13:41:38;10.10;99.90
11087;DHT22;5597;47.588;9.642;2024-01-25T13:44:04;10.10;99.90
11087;DHT22;5597;47.588;9.642;2024-01-25T13:46:29;10.10;99.90
11087;DHT22;5597;47.588;9.642;2024-01-25T13:48:55;10.10;99.90
11087;DHT22;5597;47.588;9.642;2024-01-25T13:51:20;10.20;99.90
11087;DHT22;5597;47.588;9.642;2024-01-25T13:53:46;10.10;99.90
11087;DHT22;5597;47.588;9.642;2024-01-25T13:56:13;10.10;99.90
11087;DHT22;5597;47.588;9.642;2024-01-25T13:58:38;10.10;99.90
11087;DHT22;5597;47.588;9.642;2024-01-25T14:01:04;10.10;99.90
11087;DHT22;5597;47.588;9.642;2024-01-25T14:03:29;10.10;99.90
11087;DHT22;5597;47.588;9.642;2024-01-25T14:05:56;10.10;99.90
11087;DHT22;5597;47.588;9.642;2024-01-25T14:08:22;10.10;99.90
11087;DHT22;5597;47.588;9.642;2024-01-25T14:10:48;10.20;99.90
11087;DHT22;5597;47.588;9.642;2024-01-25T14:13:14;10.10;99.90
11087;DHT22;5597;47.588;9.642;2024-01-25T14:15:42;10.10;99.90
11087;DHT22;5597;47.588;9.642;2024-01-25T14:18:08;10.10;99.90
11087;DHT22;5597;47.588;9.642;2024-01-25T14:20:33;10.10;99.90
11087;DHT22;5597;47.588;9.642;2024-01-25T14:22:59;10.10;99.90
11087;DHT22;5597;47.588;9.642;2024-01-25T14:25:25;10.10;99.90
11087;DHT22;5597;47.588;9.642;2024-01-25T14:27:50;10.10;99.90
11087;DHT22;5597;47.588;9.642;2024-01-25T14:30:16;10.00;99.90
11087;DHT22;5597;47.588;9.642;2024-01-25T14:32:41;10.00;99.90
11087;DHT22;5597;47.588;9.642;2024-01-25T14:35:08;10.00;99.90
11087;DHT22;5597;47.588;9.642;2024-01-25T14:37:33;10.00;99.90
11087;DHT22;5597;47.588;9.642;2024-01-25T14:39:59;10.00;99.90
11087;DHT22;5597;47.588;9.642;2024-01-25T14:42:24;10.00;99.90
11087;DHT22;5597;47.588;9.642;2024-01-25T14:44:50;9.90;99.90
11087;DHT22;5597;47.588;9.642;2024-01-25T14:47:15;9.90;99.90
11087;DHT22;5597;47.588;9.642;2024-01-25T14:49:46;9.90;99.90
11087;DHT22;5597;47.588;9.642;2024-01-25T14:52:11;9.90;99.90
11087;DHT22;5597;47.588;9.642;2024-01-25T14:54:37;9.80;99.90
11087;DHT22;5597;47.588;9.642;2024-01-25T14:57:03;9.80;99.90
11087;DHT22;5597;47.588;9.642;2024-01-25T14:59:28;9.80;99.90
11087;DHT22;5597;47.588;9.642;2024-01-25T15:01:54;9.70;99.90
11087;DHT22;5597;47.588;9.642;2024-01-25T15:04:19;9.70;99.90
11087;DHT22;5597;47.588;9.642;2024-01-25T15:06:45;9.70;99.90
11087;DHT22;5597;47.588;9.642;2024-01-25T15:09:10;9.70;99.90
11087;DHT22;5597;47.588;9.642;2024-01-25T15:11:36;9.60;99.90
11087;DHT22;5597;47.588;9.642;2024-01-25T15:14:02;9.60;99.90
11087;DHT22;5597;47.588;9.642;2024-01-25T15:16:27;9.60;99.90
11087;DHT22;5597;47.588;9.642;2024-01-25T15:18:56;9.50;99.90
11087;DHT22;5597;47.588;9.642;2024-01-25T15:21:22;9.50;99.90
11087;DHT22;5597;47.588;9.642;2024-01-25T15:23:47;9.50;99.90
11087;DHT22;5597;47.588;9.642;2024-01-25T15:26:13;9.40;99.90
11087;DHT22;5597;47.588;9.642;2024-01-25T15:28:38;9.40;99.90
11087;DHT22;5597;47.588;9.642;2024-01-25T15:31:04;9.40;99.90
11087;DHT22;5597;47.588;9.642;2024-01-25T15:33:29;9.30;99.90
11087;DHT22;5597;47.588;9.642;2024-01-25T15:35:55;9.30;99.90
11087;DHT22;5597;47.588;9.642;2024-01-25T15:38:21;9.30;99.90
11087;DHT22;5597;47.588;9.642;2024-01-25T15:40:46;9.30;99.90
11087;DHT22;5597;47.588;9.642;2024-01-25T15:43:12;9.20;99.90
11087;DHT22;5597;47.588;9.642;2024-01-25T15:45:37;9.20;99.90
11087;DHT22;5597;47.588;9.642;2024-01-25T15:48:03;9.20;99.90
11087;DHT22;5597;47.588;9.642;2024-01-25T15:50:29;9.10;99.90
11087;DHT22;5597;47.588;9.642;2024-01-25T15:52:55;9.10;99.90